Time;durP1;ratioP1;P1;durP2;ratioP2;P2;SDS_P1;SDS_P2;PMS_P1;PMS_P2;Temp;Humidity;BMP_temperature;BMP_pressure;BME280_temperature;BME280_humidity;BME280_pressure;Samples;Min_cycle;Max_cycle;Signal;HPM_P1;HPM_P2
2021/12/16 00:06:49;;;;;;;56.95;38.13;;;9.50;99.90;;;;;;5088244;28;20948;-90
2021/12/16 00:09:01;;;;;;;57.38;38.83;;;9.50;99.90;;;;;;5082226;28;20410;-89
2021/12/16 00:35:39;;;;;;;58.10;40.10;;;9.30;99.90;;;;;;5069308;28;21208;-90
2021/12/16 00:38:05;;;;;;;61.97;40.17;;;9.30;99.90;;;;;;5051101;28;20386;-89
2021/12/16 00:40:31;;;;;;;58.22;38.83;;;9.30;99.90;;;;;;5074868;28;20376;-91
2021/12/16 00:43:10;;;;;;;53.72;37.47;;;9.30;99.90;;;;;;5086291;28;20945;-90
2021/12/16 00:45:59;;;;;;;54.17;37.92;;;9.40;99.90;;;;;;5090615;28;20490;-89
2021/12/16 00:48:24;;;;;;;54.83;36.58;;;9.30;99.90;;;;;;5088622;28;20403;-90
2021/12/16 00:56:13;;;;;;;46.23;32.03;;;9.30;99.90;;;;;;5097302;28;20397;-90
2021/12/16 00:58:51;;;;;;;43.47;31.73;;;9.30;99.90;;;;;;5091347;28;20476;-91
2021/12/16 01:35:25;;;;;;;37.28;24.38;;;9.30;99.90;;;;;;5082457;28;20499;-90
2021/12/16 01:50:50;;;;;;;27.25;20.70;;;9.10;99.90;;;;;;5075706;28;20389;-89
2021/12/16 01:56:08;;;;;;;28.13;20.92;;;9.10;99.90;;;;;;5092187;28;20380;-90
2021/12/16 01:58:34;;;;;;;26.50;19.40;;;9.20;99.90;;;;;;5074204;28;20476;-89
2021/12/16 02:01:19;;;;;;;25.88;19.48;;;9.10;99.90;;;;;;5073138;28;20898;-91
2021/12/16 02:03:55;;;;;;;24.95;19.42;;;9.10;99.90;;;;;;5073505;28;20441;-90
2021/12/16 02:09:20;;;;;;;24.47;18.10;;;9.10;99.90;;;;;;5088348;28;20389;-90
2021/12/16 02:11:58;;;;;;;23.83;19.13;;;9.10;99.90;;;;;;5061851;28;20388;-90
2021/12/16 02:28:18;;;;;;;24.13;17.77;;;9.20;99.90;;;;;;5090936;28;20466;-90
2021/12/16 02:36:21;;;;;;;25.15;17.30;;;9.20;99.90;;;;;;5095675;28;20388;-90
2021/12/16 02:38:53;;;;;;;24.90;17.90;;;9.20;99.90;;;;;;5080482;28;20447;-90
2021/12/16 02:41:19;;;;;;;25.20;18.23;;;9.20;99.90;;;;;;5071739;28;20395;-90
2021/12/16 02:48:42;;;;;;;24.15;17.85;;;9.10;99.90;;;;;;5087687;28;20485;-88
2021/12/16 02:51:14;;;;;;;25.33;17.90;;;9.20;99.90;;;;;;5065177;28;20374;-91
2021/12/16 02:54:01;;;;;;;22.65;17.35;;;9.20;99.90;;;;;;5053391;28;20432;-89
2021/12/16 02:56:28;;;;;;;26.45;17.02;;;9.20;99.90;;;;;;5052712;28;20390;-90
2021/12/16 02:58:57;;;;;;;23.20;17.05;;;9.20;99.90;;;;;;5065693;28;20399;-90
2021/12/16 03:01:31;;;;;;;21.45;16.65;;;9.20;99.90;;;;;;5069931;28;20952;-90
2021/12/16 03:03:59;;;;;;;22.95;17.17;;;9.10;99.90;;;;;;5072306;28;20396;-91
2021/12/16 03:06:28;;;;;;;21.23;16.98;;;9.10;99.90;;;;;;5054040;28;20779;-91
2021/12/16 03:08:53;;;;;;;22.25;16.60;;;9.10;99.90;;;;;;5052347;28;20384;-91
2021/12/16 03:11:37;;;;;;;26.23;17.60;;;9.10;99.90;;;;;;5068112;28;20392;-90
2021/12/16 03:14:22;;;;;;;23.03;16.63;;;9.10;99.90;;;;;;5071413;28;20392;-91
2021/12/16 03:17:10;;;;;;;23.83;17.48;;;9.10;99.90;;;;;;5053353;28;20876;-89
2021/12/16 03:19:53;;;;;;;23.08;17.20;;;9.10;99.90;;;;;;5063573;28;20415;-90
2021/12/16 03:22:46;;;;;;;23.70;17.13;;;9.10;99.90;;;;;;5069112;28;20457;-89
2021/12/16 03:25:23;;;;;;;21.38;16.45;;;9.00;99.90;;;;;;5078948;28;20380;-90
2021/12/16 03:33:21;;;;;;;25.70;17.85;;;9.00;99.90;;;;;;5088361;28;20878;-90
2021/12/16 03:36:04;;;;;;;23.58;17.45;;;9.00;99.90;;;;;;5057283;28;20410;-90
2021/12/16 03:38:32;;;;;;;27.33;17.15;;;9.10;99.90;;;;;;5051788;28;20501;-89
2021/12/16 03:40:59;;;;;;;23.80;15.82;;;9.10;99.90;;;;;;5051724;28;20925;-90
2021/12/16 03:43:24;;;;;;;24.00;16.60;;;9.10;99.90;;;;;;5053186;28;20398;-90
2021/12/16 03:49:14;;;;;;;25.73;16.73;;;9.10;99.90;;;;;;5069295;28;20381;-90
2021/12/16 03:52:06;;;;;;;23.02;16.52;;;9.10;99.90;;;;;;5062400;28;20396;-89
2021/12/16 03:54:38;;;;;;;23.70;17.55;;;9.10;99.90;;;;;;5069577;28;20971;-90
2021/12/16 03:57:09;;;;;;;25.13;17.55;;;9.00;99.90;;;;;;5069298;28;20491;-90
2021/12/16 03:59:37;;;;;;;24.52;16.70;;;9.10;99.90;;;;;;5050970;28;20394;-90
2021/12/16 04:02:10;;;;;;;26.13;18.02;;;9.00;99.90;;;;;;5052194;28;20416;-89
2021/12/16 04:04:37;;;;;;;24.00;17.50;;;9.10;99.90;;;;;;5054673;28;20384;-90
2021/12/16 04:07:03;;;;;;;24.13;17.23;;;9.10;99.90;;;;;;5069246;28;20400;-90
2021/12/16 04:09:32;;;;;;;25.40;18.17;;;9.10;99.90;;;;;;5071058;28;20462;-92
2021/12/16 04:12:08;;;;;;;23.00;17.67;;;9.10;99.90;;;;;;5071677;28;20391;-89
2021/12/16 04:14:35;;;;;;;23.05;17.75;;;9.10;99.90;;;;;;5067971;28;20455;-91
2021/12/16 04:17:03;;;;;;;24.55;17.35;;;9.10;99.90;;;;;;5051969;28;20400;-90
2021/12/16 04:19:30;;;;;;;27.27;18.27;;;9.00;99.90;;;;;;5055087;28;20404;-90
2021/12/16 04:22:11;;;;;;;24.52;17.02;;;9.00;99.90;;;;;;5070758;28;20395;-91
2021/12/16 04:24:38;;;;;;;23.90;18.10;;;9.10;99.90;;;;;;5059612;28;20396;-88
2021/12/16 04:27:07;;;;;;;23.50;17.33;;;9.00;99.90;;;;;;5071224;28;20432;-89
2021/12/16 04:29:33;;;;;;;27.20;17.77;;;9.10;99.90;;;;;;5071362;28;20380;-89
2021/12/16 04:31:59;;;;;;;21.85;17.25;;;9.00;99.90;;;;;;5069211;28;20412;-90
2021/12/16 04:34:25;;;;;;;25.02;18.23;;;8.90;99.90;;;;;;5067029;28;20389;-88
2021/12/16 04:36:52;;;;;;;23.23;17.53;;;9.00;99.90;;;;;;5069202;28;20717;-90
2021/12/16 04:39:22;;;;;;;22.43;18.33;;;9.00;99.90;;;;;;5051302;28;20386;-86
2021/12/16 04:41:50;;;;;;;25.83;18.83;;;9.10;99.90;;;;;;5051380;28;20386;-89
2021/12/16 04:44:17;;;;;;;23.95;18.25;;;9.00;99.90;;;;;;5055954;28;20799;-89
2021/12/16 04:46:43;;;;;;;22.70;17.88;;;9.00;99.90;;;;;;5055655;28;20406;-89
2021/12/16 04:49:12;;;;;;;25.73;18.43;;;8.90;99.90;;;;;;5070019;28;20523;-89
2021/12/16 04:51:40;;;;;;;23.10;17.15;;;8.90;99.90;;;;;;5074632;28;20411;-88
2021/12/16 04:54:07;;;;;;;25.60;19.75;;;8.90;99.90;;;;;;5061736;28;20548;-90
2021/12/16 04:56:34;;;;;;;26.47;19.37;;;9.00;99.90;;;;;;5055665;28;20382;-89
2021/12/16 04:59:02;;;;;;;24.55;18.90;;;8.90;99.90;;;;;;5088864;28;20387;-88
2021/12/16 05:01:27;;;;;;;26.55;19.73;;;8.90;99.90;;;;;;5072307;28;20388;-89
2021/12/16 05:03:56;;;;;;;27.33;19.67;;;8.80;99.90;;;;;;5074104;28;20395;-89
2021/12/16 05:06:22;;;;;;;27.90;19.75;;;8.70;99.90;;;;;;5057946;28;20467;-88
2021/12/16 05:08:47;;;;;;;32.10;20.65;;;8.80;99.90;;;;;;5055079;28;20393;-88
2021/12/16 05:11:15;;;;;;;29.70;20.77;;;8.70;99.90;;;;;;5054290;28;20875;-88
2021/12/16 05:13:41;;;;;;;29.05;21.08;;;8.60;99.90;;;;;;5054360;28;20382;-90
2021/12/16 05:16:07;;;;;;;29.00;20.88;;;8.60;99.90;;;;;;5064228;28;20875;-88
2021/12/16 05:18:37;;;;;;;30.50;21.15;;;8.60;99.90;;;;;;5069345;28;20382;-88
2021/12/16 05:21:40;;;;;;;28.77;21.00;;;8.60;99.90;;;;;;5053530;28;20405;-88
2021/12/16 05:26:44;;;;;;;28.85;21.30;;;8.60;99.90;;;;;;5084552;28;20406;-89
2021/12/16 05:29:10;;;;;;;28.13;21.33;;;8.50;99.90;;;;;;5054155;28;20892;-89
2021/12/16 05:31:37;;;;;;;34.03;22.13;;;8.50;99.90;;;;;;5054515;28;20459;-90
2021/12/16 05:34:05;;;;;;;29.63;20.90;;;8.60;99.90;;;;;;5053809;28;20896;-88
2021/12/16 05:36:31;;;;;;;32.30;22.15;;;8.50;99.90;;;;;;5070314;28;20412;-89
2021/12/16 05:38:57;;;;;;;29.45;21.88;;;8.50;99.90;;;;;;5073554;28;20450;-88
2021/12/16 05:41:24;;;;;;;38.08;23.95;;;8.50;99.90;;;;;;5070878;28;20414;-89
2021/12/16 05:43:51;;;;;;;36.72;24.15;;;8.50;99.90;;;;;;5053957;28;20386;-89
2021/12/16 05:46:19;;;;;;;38.60;24.48;;;8.50;99.90;;;;;;5066366;28;20404;-89
2021/12/16 05:48:48;;;;;;;37.55;25.17;;;8.40;99.90;;;;;;5081259;28;20382;-89
2021/12/16 05:51:38;;;;;;;36.63;24.67;;;8.40;99.90;;;;;;5052905;28;20404;-89
2021/12/16 05:54:06;;;;;;;35.90;24.50;;;8.40;99.90;;;;;;5054359;28;20599;-89
2021/12/16 05:56:32;;;;;;;38.08;25.02;;;8.40;99.90;;;;;;5054716;28;20382;-91
2021/12/16 05:58:57;;;;;;;36.40;24.13;;;8.40;99.90;;;;;;5062956;28;20779;-89
2021/12/16 06:01:28;;;;;;;36.47;24.60;;;8.40;99.90;;;;;;5058823;28;20390;-89
2021/12/16 06:03:54;;;;;;;37.53;25.35;;;8.40;99.90;;;;;;5063373;28;20380;-88
2021/12/16 06:06:21;;;;;;;36.50;24.05;;;8.40;99.90;;;;;;5073298;28;20457;-89
2021/12/16 06:08:48;;;;;;;36.88;24.77;;;8.40;99.90;;;;;;5060142;28;20462;-84
2021/12/16 06:11:21;;;;;;;40.45;25.15;;;8.40;99.90;;;;;;5065599;28;20495;-88
2021/12/16 06:14:10;;;;;;;34.15;23.77;;;8.40;99.90;;;;;;5062451;28;20385;-89
2021/12/16 06:27:37;;;;;;;33.63;23.48;;;8.40;99.90;;;;;;5090964;28;20423;-88
2021/12/16 06:30:11;;;;;;;37.63;23.60;;;8.50;99.90;;;;;;5073076;28;20426;-89
2021/12/16 06:32:37;;;;;;;36.20;24.60;;;8.40;99.90;;;;;;5073333;28;20380;-92
2021/12/16 06:35:04;;;;;;;35.42;23.80;;;8.50;99.90;;;;;;5072715;28;20384;-89
2021/12/16 06:37:30;;;;;;;36.97;23.73;;;8.50;99.90;;;;;;5072482;28;20396;-85
2021/12/16 06:39:56;;;;;;;34.13;24.27;;;8.50;99.90;;;;;;5090815;28;20445;-89
2021/12/16 06:42:23;;;;;;;36.97;24.58;;;8.50;99.90;;;;;;5072495;28;20368;-89
2021/12/16 06:44:56;;;;;;;37.10;24.60;;;8.40;99.90;;;;;;5072311;28;20380;-88
2021/12/16 06:47:30;;;;;;;37.60;24.13;;;8.50;99.90;;;;;;5072314;28;20404;-89
2021/12/16 06:49:56;;;;;;;36.60;24.02;;;8.50;99.90;;;;;;5072434;28;20434;-89
2021/12/16 06:52:28;;;;;;;35.42;24.65;;;8.50;99.90;;;;;;5072023;28;20404;-89
2021/12/16 07:00:08;;;;;;;37.50;24.20;;;8.50;99.90;;;;;;5090511;28;20376;-89
2021/12/16 07:02:49;;;;;;;35.35;23.15;;;8.50;99.90;;;;;;5071774;28;20396;-89
2021/12/16 07:05:18;;;;;;;35.70;23.13;;;8.50;99.90;;;;;;5071706;28;20396;-89
2021/12/16 07:07:44;;;;;;;34.80;23.52;;;8.60;99.90;;;;;;5071546;28;20408;-89
2021/12/16 07:10:12;;;;;;;34.40;23.05;;;8.60;99.90;;;;;;5072041;28;20862;-89
2021/12/16 07:12:39;;;;;;;37.25;23.35;;;8.60;99.90;;;;;;5072132;28;20376;-89
2021/12/16 07:15:08;;;;;;;34.75;23.15;;;8.60;99.90;;;;;;5072356;28;20434;-89
2021/12/16 07:17:35;;;;;;;34.95;22.77;;;8.50;99.90;;;;;;5066618;28;20407;-88
2021/12/16 07:20:01;;;;;;;35.08;23.42;;;8.60;99.90;;;;;;5054855;28;20374;-90
2021/12/16 07:22:26;;;;;;;39.22;24.55;;;8.60;99.90;;;;;;5055918;28;20878;-89
2021/12/16 07:24:52;;;;;;;38.42;23.90;;;8.60;99.90;;;;;;5071980;28;20404;-90
2021/12/16 07:27:18;;;;;;;36.97;23.50;;;8.60;99.90;;;;;;5071885;28;20397;-86
2021/12/16 07:29:43;;;;;;;39.28;24.90;;;8.60;99.90;;;;;;5090621;28;20379;-90
2021/12/16 07:32:09;;;;;;;38.95;24.88;;;8.60;99.90;;;;;;5071718;28;20379;-89
2021/12/16 07:34:35;;;;;;;37.53;23.20;;;8.60;99.90;;;;;;5067571;28;20467;-86
2021/12/16 07:37:04;;;;;;;35.70;23.93;;;8.60;99.90;;;;;;5061381;28;20488;-86
2021/12/16 07:39:37;;;;;;;34.45;24.13;;;8.60;99.90;;;;;;5052662;28;20382;-89
2021/12/16 07:42:04;;;;;;;36.05;23.52;;;8.70;99.90;;;;;;5052038;28;20378;-88
2021/12/16 07:44:31;;;;;;;35.22;23.55;;;8.70;99.90;;;;;;5052898;28;20393;-89
2021/12/16 07:47:03;;;;;;;35.25;23.85;;;8.70;99.90;;;;;;5080606;28;20402;-89
2021/12/16 07:49:32;;;;;;;33.87;22.50;;;8.70;99.90;;;;;;5051239;28;20393;-89
2021/12/16 07:52:03;;;;;;;36.17;22.20;;;8.80;99.90;;;;;;5051334;28;20491;-88
2021/12/16 07:54:29;;;;;;;34.85;23.00;;;8.80;99.90;;;;;;5064464;28;20390;-89
2021/12/16 07:56:56;;;;;;;35.85;22.95;;;8.80;99.90;;;;;;5052364;28;20714;-88
2021/12/16 07:59:24;;;;;;;35.22;23.63;;;8.80;99.90;;;;;;5051611;28;20445;-88
2021/12/16 08:01:50;;;;;;;35.33;22.63;;;8.80;99.90;;;;;;5052185;28;20381;-89
2021/12/16 08:04:22;;;;;;;36.80;23.33;;;8.80;99.90;;;;;;5069704;28;20370;-89
2021/12/16 08:06:51;;;;;;;40.20;23.67;;;8.70;99.90;;;;;;5089038;28;20504;-89
2021/12/16 08:09:18;;;;;;;37.55;23.67;;;8.80;99.90;;;;;;5071406;28;20462;-89
2021/12/16 08:11:46;;;;;;;39.83;24.48;;;8.80;99.90;;;;;;5077797;28;20448;-90
2021/12/16 08:14:12;;;;;;;37.53;22.65;;;8.90;99.90;;;;;;5073221;28;20467;-89
2021/12/16 08:16:38;;;;;;;37.72;23.92;;;8.90;99.90;;;;;;5051154;28;20477;-88
2021/12/16 08:19:05;;;;;;;31.73;22.10;;;8.90;99.90;;;;;;5055661;28;20374;-88
2021/12/16 08:21:31;;;;;;;37.70;23.10;;;8.90;99.90;;;;;;5055276;28;20511;-89
2021/12/16 08:23:59;;;;;;;34.88;23.15;;;8.90;99.90;;;;;;5054886;28;20386;-89
2021/12/16 08:26:26;;;;;;;35.40;22.57;;;8.90;99.90;;;;;;5065006;28;20498;-88
2021/12/16 08:28:52;;;;;;;34.57;22.07;;;8.90;99.90;;;;;;5073285;28;21232;-88
2021/12/16 08:31:19;;;;;;;36.83;22.50;;;9.00;99.90;;;;;;5055110;28;20896;-89
2021/12/16 08:33:45;;;;;;;33.50;22.20;;;9.00;99.90;;;;;;5073026;28;20370;-88
2021/12/16 08:36:11;;;;;;;34.13;21.75;;;9.00;99.90;;;;;;5072584;28;20400;-88
2021/12/16 08:38:38;;;;;;;36.67;21.63;;;9.00;99.90;;;;;;5074831;28;20459;-88
2021/12/16 08:41:08;;;;;;;32.90;21.25;;;9.00;99.90;;;;;;5074835;28;20420;-88
2021/12/16 08:43:36;;;;;;;32.27;21.80;;;9.10;99.90;;;;;;5065218;28;20389;-87
2021/12/16 08:46:03;;;;;;;30.37;21.57;;;9.10;99.90;;;;;;5058619;28;20396;-89
2021/12/16 08:48:29;;;;;;;32.72;21.13;;;9.10;99.90;;;;;;5065747;28;20439;-90
2021/12/16 08:50:56;;;;;;;34.00;21.15;;;9.20;99.90;;;;;;5054177;28;20382;-86
2021/12/16 08:53:22;;;;;;;31.75;20.80;;;9.20;99.90;;;;;;5055327;28;20809;-86
2021/12/16 08:55:49;;;;;;;30.10;20.75;;;9.20;99.90;;;;;;5071204;28;20374;-88
2021/12/16 08:58:16;;;;;;;29.85;20.45;;;9.20;99.90;;;;;;5054717;28;20444;-88
2021/12/16 09:00:47;;;;;;;32.13;20.50;;;9.20;99.90;;;;;;5055048;28;20377;-88
2021/12/16 09:03:14;;;;;;;26.23;19.40;;;9.20;99.90;;;;;;5055318;28;20370;-87
2021/12/16 09:05:40;;;;;;;31.83;20.10;;;9.20;99.90;;;;;;5054858;28;20390;-88
2021/12/16 09:08:07;;;;;;;31.43;20.37;;;9.20;99.90;;;;;;5055455;28;20929;-89
2021/12/16 09:10:36;;;;;;;27.77;19.35;;;9.20;99.90;;;;;;5054604;28;20397;-82
2021/12/16 09:13:07;;;;;;;29.63;20.10;;;9.20;99.90;;;;;;5063281;28;20475;-85
2021/12/16 09:15:38;;;;;;;33.72;20.70;;;9.20;99.90;;;;;;5093053;28;20376;-86
2021/12/16 09:18:05;;;;;;;28.67;20.27;;;9.10;99.90;;;;;;5074639;28;20388;-87
2021/12/16 09:20:32;;;;;;;28.45;19.83;;;9.20;99.90;;;;;;5062789;28;20378;-87
2021/12/16 09:22:58;;;;;;;30.40;20.67;;;9.30;99.90;;;;;;5054233;28;20459;-87
2021/12/16 09:25:27;;;;;;;29.20;19.10;;;9.30;99.90;;;;;;5054537;28;20374;-88
2021/12/16 09:28:02;;;;;;;28.05;19.15;;;9.30;99.90;;;;;;5055128;28;20900;-87
2021/12/16 09:30:30;;;;;;;26.02;18.48;;;9.40;99.90;;;;;;5072446;28;20991;-89
2021/12/16 09:32:59;;;;;;;27.98;20.58;;;9.40;99.90;;;;;;5054937;28;20398;-89
2021/12/16 09:35:26;;;;;;;26.33;19.88;;;9.40;99.90;;;;;;5055100;28;20863;-85
2021/12/16 09:37:51;;;;;;;28.15;20.05;;;9.40;99.90;;;;;;5092033;28;20415;-86
2021/12/16 09:40:21;;;;;;;27.17;18.98;;;9.40;99.90;;;;;;5092079;28;20858;-86
2021/12/16 09:42:49;;;;;;;25.80;18.57;;;9.40;99.90;;;;;;5092047;28;20935;-89
2021/12/16 09:45:18;;;;;;;24.92;18.23;;;9.60;99.90;;;;;;5074610;28;20441;-84
2021/12/16 09:47:45;;;;;;;24.90;18.27;;;9.50;99.90;;;;;;5054473;28;20459;-88
2021/12/16 09:50:17;;;;;;;26.73;18.17;;;9.40;99.90;;;;;;5071978;28;20374;-88
2021/12/16 09:52:47;;;;;;;23.38;18.17;;;9.50;99.90;;;;;;5065872;28;20531;-89
2021/12/16 09:55:15;;;;;;;24.13;18.63;;;9.50;99.90;;;;;;5072024;28;20999;-88
2021/12/16 09:57:41;;;;;;;25.30;18.17;;;9.50;99.90;;;;;;5053643;28;20425;-87
2021/12/16 10:00:10;;;;;;;25.43;19.77;;;9.60;99.90;;;;;;5052922;28;20475;-87
2021/12/16 10:02:36;;;;;;;31.15;19.50;;;9.50;99.90;;;;;;5052104;28;20383;-91
2021/12/16 10:05:05;;;;;;;25.08;18.85;;;9.60;99.90;;;;;;5052223;28;20899;-89
2021/12/16 10:07:33;;;;;;;26.33;19.65;;;9.60;99.90;;;;;;5068763;28;20747;-83
2021/12/16 10:10:05;;;;;;;27.30;19.58;;;9.60;99.90;;;;;;5072909;28;20384;-89
2021/12/16 10:12:36;;;;;;;26.83;19.47;;;9.60;99.90;;;;;;5058650;28;20390;-89
2021/12/16 10:15:08;;;;;;;25.50;18.45;;;9.60;99.90;;;;;;5066539;28;20388;-88
2021/12/16 10:17:40;;;;;;;27.63;19.50;;;9.60;99.90;;;;;;5066857;28;20401;-87
2021/12/16 10:20:16;;;;;;;27.42;19.20;;;9.70;99.90;;;;;;5070593;28;20469;-87
2021/12/16 10:22:43;;;;;;;24.77;18.05;;;9.60;99.90;;;;;;5080996;28;20467;-88
2021/12/16 10:25:29;;;;;;;24.30;17.33;;;9.70;99.90;;;;;;5068272;28;20961;-89
2021/12/16 10:28:14;;;;;;;25.20;18.10;;;9.80;99.90;;;;;;5071076;28;20408;-88
2021/12/16 10:31:00;;;;;;;23.93;16.90;;;9.80;99.90;;;;;;5073070;28;20469;-89
2021/12/16 10:33:32;;;;;;;22.23;16.45;;;9.80;99.90;;;;;;5090174;28;20406;-86
2021/12/16 10:36:17;;;;;;;21.30;16.20;;;9.90;99.90;;;;;;5073054;28;20438;-84
2021/12/16 10:38:54;;;;;;;20.05;16.13;;;9.90;99.90;;;;;;5073307;28;20396;-86
2021/12/16 10:41:24;;;;;;;21.23;15.27;;;9.90;99.90;;;;;;5090275;28;20419;-82
2021/12/16 10:43:54;;;;;;;21.20;15.40;;;9.90;99.90;;;;;;5072842;28;20423;-89
2021/12/16 10:46:27;;;;;;;21.50;16.10;;;9.90;99.90;;;;;;5072355;28;20404;-83
2021/12/16 10:49:10;;;;;;;19.98;16.15;;;9.90;99.90;;;;;;5055144;28;20392;-87
2021/12/16 10:51:41;;;;;;;19.20;15.13;;;9.90;99.90;;;;;;5090711;28;20381;-83
2021/12/16 10:54:29;;;;;;;21.83;15.68;;;10.00;99.90;;;;;;5091091;28;20380;-88
2021/12/16 10:57:07;;;;;;;18.57;14.50;;;10.00;99.90;;;;;;5090404;28;20374;-88
2021/12/16 10:59:46;;;;;;;17.60;14.75;;;10.10;99.90;;;;;;5071797;28;20431;-85
2021/12/16 11:02:21;;;;;;;16.80;13.85;;;10.10;99.90;;;;;;5071681;28;20391;-87
2021/12/16 11:04:49;;;;;;;16.58;13.10;;;10.20;99.90;;;;;;5088142;28;20419;-87
2021/12/16 11:07:24;;;;;;;16.20;12.70;;;10.20;99.90;;;;;;5072517;28;20428;-87
2021/12/16 11:10:01;;;;;;;15.85;12.60;;;10.40;99.90;;;;;;5065847;28;20448;-86
2021/12/16 11:12:48;;;;;;;15.38;12.68;;;10.40;99.90;;;;;;5077950;28;20817;-89
2021/12/16 11:15:17;;;;;;;13.55;11.90;;;10.30;99.90;;;;;;5077204;28;21333;-88
2021/12/16 11:17:45;;;;;;;16.17;12.55;;;10.30;99.90;;;;;;5070117;28;20813;-88
2021/12/16 11:20:13;;;;;;;15.32;12.45;;;10.40;99.90;;;;;;5069344;28;20403;-88
2021/12/16 11:22:40;;;;;;;15.18;12.07;;;10.40;99.90;;;;;;5054165;28;20488;-88
2021/12/16 11:25:18;;;;;;;13.45;11.85;;;10.40;99.90;;;;;;5058929;28;20401;-88
2021/12/16 11:27:49;;;;;;;14.25;11.00;;;10.30;99.90;;;;;;5074916;28;20588;-87
2021/12/16 11:30:20;;;;;;;14.18;10.77;;;10.40;99.90;;;;;;5052155;28;20409;-87
2021/12/16 11:32:49;;;;;;;12.63;10.93;;;10.50;99.90;;;;;;5085186;28;20395;-88
2021/12/16 11:35:31;;;;;;;13.43;11.18;;;10.30;99.90;;;;;;5054808;28;20443;-89
2021/12/16 11:38:02;;;;;;;12.90;10.73;;;10.30;99.90;;;;;;5060162;28;20874;-85
2021/12/16 11:40:47;;;;;;;14.13;10.13;;;10.20;99.90;;;;;;5070345;28;20491;-87
2021/12/16 11:43:12;;;;;;;10.80;9.57;;;10.30;99.90;;;;;;5055424;28;20411;-90
2021/12/16 11:45:39;;;;;;;8.90;8.00;;;10.80;99.90;;;;;;5071856;28;20434;-88
2021/12/16 11:48:06;;;;;;;8.97;7.43;;;11.10;99.90;;;;;;5071128;28;20388;-82
2021/12/16 11:50:40;;;;;;;8.88;7.53;;;11.30;99.90;;;;;;5071462;28;20388;-86
2021/12/16 11:53:07;;;;;;;8.43;6.47;;;11.10;99.90;;;;;;5089558;28;20389;-88
2021/12/16 11:55:36;;;;;;;7.13;5.93;;;10.90;99.90;;;;;;5070686;28;20403;-86
2021/12/16 11:58:05;;;;;;;7.87;5.63;;;10.80;99.90;;;;;;5070950;28;20438;-89
2021/12/16 12:00:41;;;;;;;7.53;5.85;;;10.70;99.90;;;;;;5070412;28;20815;-86
2021/12/16 12:03:14;;;;;;;6.72;5.03;;;10.70;99.90;;;;;;5083468;28;20430;-86
2021/12/16 12:05:46;;;;;;;6.35;4.57;;;10.60;99.90;;;;;;5071075;28;20857;-88
2021/12/16 12:08:21;;;;;;;8.32;4.93;;;10.50;99.90;;;;;;5071457;28;20387;-84
2021/12/16 12:10:59;;;;;;;8.23;4.93;;;10.60;99.90;;;;;;5089534;28;20441;-84
2021/12/16 12:13:34;;;;;;;5.83;5.20;;;10.40;99.90;;;;;;5089985;28;20372;-88
2021/12/16 12:16:24;;;;;;;6.35;4.55;;;10.30;99.90;;;;;;5071323;28;20459;-83
2021/12/16 12:18:52;;;;;;;8.32;4.40;;;10.20;99.90;;;;;;5071553;28;20377;-85
2021/12/16 12:21:19;;;;;;;5.00;4.13;;;10.30;99.90;;;;;;5070803;28;20501;-85
2021/12/16 12:23:48;;;;;;;6.90;4.05;;;10.30;99.90;;;;;;5070077;28;20389;-87
2021/12/16 12:26:18;;;;;;;6.95;4.15;;;10.20;99.90;;;;;;5071175;28;20392;-89
2021/12/16 12:28:47;;;;;;;5.97;3.95;;;10.10;99.90;;;;;;5072097;28;20869;-89
2021/12/16 12:31:16;;;;;;;8.52;4.55;;;10.30;99.90;;;;;;5057335;28;20463;-88
2021/12/16 12:33:42;;;;;;;9.13;4.90;;;10.10;99.90;;;;;;5069419;28;20360;-85
2021/12/16 12:36:08;;;;;;;8.27;3.97;;;10.20;99.90;;;;;;5071149;28;20430;-87
2021/12/16 12:38:38;;;;;;;5.95;3.97;;;10.30;99.90;;;;;;5071808;28;20377;-89
2021/12/16 12:41:05;;;;;;;4.17;3.70;;;10.40;99.90;;;;;;5070695;28;20397;-86
2021/12/16 12:43:35;;;;;;;5.82;3.65;;;10.60;99.90;;;;;;5071369;28;20463;-86
2021/12/16 12:46:06;;;;;;;8.13;3.90;;;10.70;99.90;;;;;;5070363;28;20404;-88
2021/12/16 12:48:35;;;;;;;6.53;3.60;;;10.40;99.90;;;;;;5070450;28;20379;-85
2021/12/16 12:51:04;;;;;;;7.22;3.60;;;10.30;99.90;;;;;;5054062;28;20381;-88
2021/12/16 12:53:35;;;;;;;7.05;3.30;;;10.40;99.90;;;;;;5089854;28;20426;-84
2021/12/16 12:56:17;;;;;;;6.97;3.15;;;10.30;99.90;;;;;;5088886;28;20388;-88
2021/12/16 12:58:54;;;;;;;6.35;3.45;;;10.40;99.90;;;;;;5090872;28;20380;-89
2021/12/16 13:01:49;;;;;;;7.75;3.30;;;10.40;99.90;;;;;;5071137;28;20404;-86
2021/12/16 13:04:25;;;;;;;7.47;3.53;;;10.30;99.90;;;;;;5072800;28;20441;-86
2021/12/16 13:06:58;;;;;;;6.82;3.80;;;10.20;99.90;;;;;;5074059;28;20400;-89
2021/12/16 13:09:35;;;;;;;8.73;4.07;;;10.20;99.90;;;;;;5074675;28;20456;-88
2021/12/16 13:12:26;;;;;;;7.82;3.60;;;10.10;99.90;;;;;;5075190;28;21169;-89
2021/12/16 13:15:04;;;;;;;8.23;4.20;;;10.10;99.90;;;;;;5075250;28;20441;-89
2021/12/16 13:23:25;;;;;;;8.80;4.68;;;10.00;99.90;;;;;;5074190;28;20388;-88
2021/12/16 13:27:26;;;;;;;7.80;3.65;;;9.90;99.90;;;;;;5012291;28;20561;-88
2021/12/16 13:30:18;;;;;;;8.02;3.90;;;9.80;99.90;;;;;;5011034;28;20387;-88
2021/12/16 13:33:18;;;;;;;5.55;3.80;;;9.70;99.90;;;;;;5060634;28;20386;-89
2021/12/16 13:35:48;;;;;;;8.65;3.80;;;9.70;99.90;;;;;;5074556;28;20391;-87
2021/12/16 13:38:16;;;;;;;9.52;4.47;;;9.60;99.90;;;;;;5074925;28;20372;-89
2021/12/16 13:40:43;;;;;;;7.68;3.90;;;9.50;99.90;;;;;;5073853;28;20388;-89
2021/12/16 13:43:29;;;;;;;6.07;3.47;;;9.60;99.90;;;;;;5092759;28;20376;-87
2021/12/16 13:46:29;;;;;;;10.05;4.20;;;9.60;99.90;;;;;;5075083;28;20404;-89
2021/12/16 14:05:55;;;;;;;9.25;4.50;;;9.20;99.90;;;;;;5070818;28;20378;-89
2021/12/16 14:08:37;;;;;;;9.32;5.15;;;9.10;99.90;;;;;;5054101;28;20860;-88
2021/12/16 14:11:50;;;;;;;10.40;4.90;;;9.10;99.90;;;;;;5052854;28;20493;-89
2021/12/16 14:14:27;;;;;;;11.77;5.05;;;9.00;99.90;;;;;;5071112;28;20775;-86
2021/12/16 14:17:14;;;;;;;10.00;5.35;;;8.90;99.90;;;;;;5053889;28;20718;-89
2021/12/16 14:23:05;;;;;;;9.52;5.25;;;8.80;99.90;;;;;;5071573;28;20386;-89
2021/12/16 14:39:19;;;;;;;9.97;4.87;;;8.70;99.90;;;;;;5099304;28;20449;-91
2021/12/16 14:42:03;;;;;;;10.73;4.13;;;8.50;99.90;;;;;;5079476;28;20475;-89
2021/12/16 14:49:46;;;;;;;13.30;5.32;;;8.20;99.90;;;;;;5094373;28;20383;-90
2021/12/16 14:52:17;;;;;;;10.43;4.67;;;8.00;99.90;;;;;;5073398;28;20380;-89
2021/12/16 14:54:54;;;;;;;10.02;4.63;;;8.00;99.90;;;;;;5074194;28;20473;-90
2021/12/16 14:57:32;;;;;;;11.13;4.93;;;8.00;99.90;;;;;;5062810;28;20485;-90
2021/12/16 15:00:13;;;;;;;11.40;4.70;;;7.90;99.90;;;;;;5067078;28;20392;-89
2021/12/16 15:02:41;;;;;;;12.70;4.57;;;7.70;99.90;;;;;;5067524;28;20894;-89
2021/12/16 15:05:30;;;;;;;13.88;4.90;;;7.60;99.90;;;;;;5070124;28;20380;-90
2021/12/16 15:08:05;;;;;;;11.43;4.43;;;7.50;99.90;;;;;;5068817;28;20408;-90
2021/12/16 15:10:32;;;;;;;14.77;5.00;;;7.50;99.90;;;;;;5068425;28;20463;-90
2021/12/16 15:13:07;;;;;;;13.68;4.90;;;7.30;99.90;;;;;;5069739;28;20387;-90
2021/12/16 15:15:42;;;;;;;9.48;4.80;;;7.30;99.90;;;;;;5073296;28;20389;-89
2021/12/16 15:38:15;;;;;;;9.13;5.30;;;6.60;99.90;;;;;;5090510;28;21269;-89
2021/12/16 15:43:11;;;;;;;12.48;6.28;;;6.40;99.90;;;;;;5089454;28;20381;-89
2021/12/16 15:45:45;;;;;;;13.13;6.20;;;6.20;99.90;;;;;;5071906;28;20376;-89
2021/12/16 15:48:15;;;;;;;14.43;6.90;;;6.10;99.90;;;;;;5072115;28;20380;-89
2021/12/16 15:50:58;;;;;;;15.48;8.57;;;5.90;99.90;;;;;;5071472;28;20467;-90
2021/12/16 15:53:51;;;;;;;15.02;9.68;;;5.80;99.90;;;;;;5072000;28;20377;-90
2021/12/16 15:56:21;;;;;;;20.58;11.20;;;5.80;99.90;;;;;;5071623;28;20732;-89
2021/12/16 15:58:53;;;;;;;14.65;9.40;;;5.70;99.90;;;;;;5071846;28;20380;-89
2021/12/16 16:01:19;;;;;;;17.08;10.02;;;5.60;99.90;;;;;;5071512;28;20388;-89
2021/12/16 16:03:46;;;;;;;16.87;9.00;;;5.50;99.90;;;;;;5071934;28;20380;-90
2021/12/16 16:06:13;;;;;;;13.48;8.75;;;5.50;99.90;;;;;;5071536;28;20392;-90
2021/12/16 16:08:46;;;;;;;14.73;9.02;;;5.40;99.90;;;;;;5071205;28;20368;-89
2021/12/16 16:11:15;;;;;;;16.20;8.50;;;5.30;99.90;;;;;;5071120;28;20452;-90
2021/12/16 16:13:48;;;;;;;14.40;8.57;;;5.30;99.90;;;;;;5071429;28;20367;-90
2021/12/16 16:16:17;;;;;;;14.10;8.40;;;5.20;99.90;;;;;;5071643;28;20525;-90
2021/12/16 16:18:59;;;;;;;13.43;8.73;;;5.10;99.90;;;;;;5071295;28;20391;-90
2021/12/16 16:21:34;;;;;;;14.38;8.65;;;5.00;99.90;;;;;;5071286;28;20387;-90
2021/12/16 16:24:07;;;;;;;13.40;9.02;;;5.00;99.90;;;;;;5071167;28;20387;-90
2021/12/16 16:26:33;;;;;;;13.98;10.00;;;4.90;99.90;;;;;;5070755;28;20400;-90
2021/12/16 16:29:05;;;;;;;16.58;11.32;;;4.80;99.90;;;;;;5071476;28;20451;-90